createdAt,value
2022-10-28T00:00:02.101Z,16.00
2022-10-28T00:02:49.979Z,15.90
2022-10-28T00:05:37.884Z,15.90
2022-10-28T00:08:25.697Z,15.90
2022-10-28T00:11:15.766Z,15.90
2022-10-28T00:14:04.901Z,15.90
2022-10-28T00:16:54.083Z,15.90
2022-10-28T00:19:41.943Z,15.90
2022-10-28T00:22:29.748Z,15.90
2022-10-28T00:25:17.533Z,15.90
2022-10-28T00:28:05.491Z,15.90
2022-10-28T00:30:53.359Z,15.90
2022-10-28T00:33:42.807Z,15.90
2022-10-28T00:36:31.810Z,16.00
2022-10-28T00:39:20.477Z,16.00
2022-10-28T00:42:08.327Z,16.00
2022-10-28T00:44:59.331Z,16.00
2022-10-28T00:47:52.541Z,16.00
2022-10-28T00:50:46.401Z,16.00
2022-10-28T00:53:34.472Z,16.00
2022-10-28T00:56:23.113Z,16.00
2022-10-28T00:59:12.961Z,16.00
2022-10-28T01:02:01.011Z,16.00
2022-10-28T01:04:49.296Z,16.00
2022-10-28T01:07:38.419Z,16.00
2022-10-28T01:10:29.907Z,16.00
2022-10-28T01:13:21.332Z,16.00
2022-10-28T01:16:12.022Z,16.00
2022-10-28T01:19:03.802Z,16.10
2022-10-28T01:22:06.414Z,16.10
2022-10-28T01:25:00.523Z,16.00
2022-10-28T01:27:56.721Z,16.00
2022-10-28T01:31:00.754Z,16.00
2022-10-28T01:33:51.793Z,15.90
2022-10-28T01:36:41.756Z,15.90
2022-10-28T01:39:33.031Z,15.90
2022-10-28T01:42:26.052Z,15.80
2022-10-28T01:45:16.024Z,15.80
2022-10-28T01:48:08.878Z,15.80
2022-10-28T01:50:58.513Z,15.70
2022-10-28T01:53:48.300Z,15.70
2022-10-28T01:56:38.117Z,15.70
2022-10-28T01:59:27.544Z,15.70
2022-10-28T02:02:15.903Z,15.70
2022-10-28T02:05:21.615Z,15.70
2022-10-28T02:08:27.335Z,15.70
2022-10-28T02:11:23.449Z,15.70
2022-10-28T02:14:18.845Z,15.80
2022-10-28T02:17:11.537Z,15.80
2022-10-28T02:20:04.459Z,15.80
2022-10-28T02:22:53.448Z,15.90
2022-10-28T02:25:44.450Z,15.80
2022-10-28T02:28:38.621Z,15.80
2022-10-28T02:31:29.004Z,15.80
2022-10-28T02:34:19.145Z,15.70
2022-10-28T02:37:09.152Z,15.80
2022-10-28T02:39:58.879Z,15.70
2022-10-28T02:42:48.631Z,15.70
2022-10-28T02:45:41.008Z,15.70
2022-10-28T02:48:32.640Z,15.70
2022-10-28T02:51:22.499Z,15.70
2022-10-28T02:54:11.253Z,15.70
2022-10-28T02:57:03.224Z,15.70
2022-10-28T02:59:54.783Z,15.70
2022-10-28T03:02:43.953Z,15.70
2022-10-28T03:05:31.663Z,15.70
2022-10-28T03:08:19.347Z,15.70
2022-10-28T03:11:07.080Z,15.80
2022-10-28T03:13:54.761Z,15.80
2022-10-28T03:16:42.479Z,15.80
2022-10-28T03:19:31.530Z,15.80
2022-10-28T03:22:19.266Z,15.80
2022-10-28T03:25:07.132Z,15.80
2022-10-28T03:27:54.960Z,15.80
2022-10-28T03:30:43.203Z,15.80
2022-10-28T03:33:30.931Z,15.80
2022-10-28T03:36:20.036Z,15.80
2022-10-28T03:39:07.732Z,15.80
2022-10-28T03:41:55.455Z,15.80
2022-10-28T03:44:43.175Z,15.80
2022-10-28T03:47:30.870Z,15.80
2022-10-28T03:50:18.607Z,15.80
2022-10-28T03:53:07.781Z,15.80
2022-10-28T03:55:55.714Z,15.80
2022-10-28T03:58:43.579Z,15.80
2022-10-28T04:01:31.448Z,15.80
2022-10-28T04:04:19.555Z,15.80
2022-10-28T04:07:09.246Z,15.80
2022-10-28T04:09:58.308Z,15.80
2022-10-28T04:12:45.996Z,15.80
2022-10-28T04:15:33.900Z,15.80
2022-10-28T04:18:21.657Z,15.80
2022-10-28T04:21:09.333Z,15.80
2022-10-28T04:23:57.032Z,15.80
2022-10-28T04:26:46.480Z,15.80
2022-10-28T04:29:34.236Z,15.80
2022-10-28T04:32:21.955Z,15.80
2022-10-28T04:35:10.501Z,15.80
2022-10-28T04:37:58.243Z,15.80
2022-10-28T04:40:47.858Z,15.80
2022-10-28T04:43:36.954Z,15.80
2022-10-28T04:46:24.834Z,15.80
2022-10-28T04:49:12.670Z,15.80
2022-10-28T04:52:00.412Z,15.80
2022-10-28T04:54:48.098Z,15.80
2022-10-28T04:57:35.833Z,15.80
2022-10-28T05:00:25.291Z,15.80
2022-10-28T05:03:12.999Z,15.80
2022-10-28T05:06:00.720Z,15.80
2022-10-28T05:08:48.590Z,15.80
2022-10-28T05:11:36.352Z,15.70
2022-10-28T05:14:24.062Z,15.80
2022-10-28T05:17:13.171Z,15.70
2022-10-28T05:20:00.891Z,15.70
2022-10-28T05:22:48.969Z,15.70
2022-10-28T05:25:36.693Z,15.70
2022-10-28T05:28:24.463Z,15.70
2022-10-28T05:31:12.144Z,15.70
2022-10-28T05:34:01.241Z,15.70
2022-10-28T05:36:50.393Z,15.70
2022-10-28T05:39:38.116Z,15.70
2022-10-28T05:42:26.012Z,15.70
2022-10-28T05:45:13.980Z,15.70
2022-10-28T05:48:01.999Z,15.60
2022-10-28T05:50:51.044Z,15.60
2022-10-28T05:53:38.880Z,15.60
2022-10-28T05:56:26.624Z,15.60
2022-10-28T05:59:14.347Z,15.60
2022-10-28T06:02:02.075Z,15.60
2022-10-28T06:04:49.768Z,15.50
2022-10-28T06:07:39.314Z,15.50
2022-10-28T06:10:27.045Z,15.50
2022-10-28T06:13:13.395Z,15.50
2022-10-28T06:16:01.173Z,15.50
2022-10-28T06:18:48.979Z,15.40
2022-10-28T06:21:36.695Z,15.50
2022-10-28T06:24:25.753Z,15.50
2022-10-28T06:27:13.455Z,15.50
2022-10-28T06:30:01.148Z,15.50
2022-10-28T06:32:48.871Z,15.50
2022-10-28T06:35:36.563Z,15.40
2022-10-28T06:38:24.365Z,15.40
2022-10-28T06:41:13.437Z,15.40
2022-10-28T06:44:01.372Z,15.40
2022-10-28T06:46:50.579Z,15.50
2022-10-28T06:49:38.289Z,15.50
2022-10-28T06:52:26.250Z,15.50
2022-10-28T06:55:14.227Z,15.40
2022-10-28T06:58:03.630Z,15.50
2022-10-28T07:00:51.608Z,15.50
2022-10-28T07:03:39.357Z,15.50
2022-10-28T07:06:27.046Z,15.60
2022-10-28T07:09:15.206Z,15.70
2022-10-28T07:12:05.112Z,15.70
2022-10-28T07:14:54.750Z,15.80
2022-10-28T07:17:42.530Z,15.80
2022-10-28T07:20:32.060Z,15.80
2022-10-28T07:23:20.402Z,15.80
2022-10-28T07:26:08.285Z,15.90
2022-10-28T07:28:56.140Z,15.90
2022-10-28T07:31:45.246Z,16.00
2022-10-28T07:34:33.037Z,16.00
2022-10-28T07:37:20.784Z,16.00
2022-10-28T07:40:08.921Z,16.10
2022-10-28T07:42:56.966Z,16.10
2022-10-28T07:45:45.066Z,16.20
2022-10-28T07:48:36.973Z,16.20
2022-10-28T07:51:24.690Z,16.30
2022-10-28T07:54:12.497Z,16.40
2022-10-28T07:57:00.296Z,16.40
2022-10-28T07:59:48.053Z,16.50
2022-10-28T08:02:35.817Z,16.50
2022-10-28T08:05:24.857Z,16.60
2022-10-28T08:08:13.078Z,16.60
2022-10-28T08:11:00.761Z,16.60
2022-10-28T08:13:48.721Z,16.70
2022-10-28T08:16:36.522Z,16.70
2022-10-28T08:19:24.340Z,16.70
2022-10-28T08:22:13.352Z,16.80
2022-10-28T08:25:01.048Z,16.80
2022-10-28T08:27:48.774Z,16.80
2022-10-28T08:30:56.637Z,16.80
2022-10-28T08:33:45.311Z,16.80
2022-10-28T08:36:33.033Z,16.90
2022-10-28T08:39:22.192Z,16.90
2022-10-28T08:42:19.288Z,17.00
2022-10-28T08:45:19.634Z,17.00
2022-10-28T08:48:13.206Z,17.10
2022-10-28T08:51:04.466Z,17.20
2022-10-28T08:53:54.681Z,17.30
2022-10-28T08:56:46.119Z,17.30
2022-10-28T08:59:36.129Z,17.40
2022-10-28T09:02:24.954Z,17.50
2022-10-28T09:05:18.311Z,17.50
2022-10-28T09:08:06.346Z,17.60
2022-10-28T09:11:13.017Z,17.60
2022-10-28T09:14:08.064Z,17.70
2022-10-28T09:17:01.007Z,17.80
2022-10-28T09:19:50.375Z,17.80
2022-10-28T09:22:41.636Z,17.90
2022-10-28T09:25:32.833Z,18.00
2022-10-28T09:28:26.081Z,18.10
2022-10-28T09:31:19.672Z,18.10
2022-10-28T09:34:15.302Z,18.10
2022-10-28T09:37:05.689Z,18.20
2022-10-28T09:39:55.453Z,18.30
2022-10-28T09:42:45.381Z,18.30
2022-10-28T09:45:34.289Z,18.20
2022-10-28T09:48:25.265Z,18.20
2022-10-28T09:51:19.049Z,18.20
2022-10-28T09:54:06.924Z,18.20
2022-10-28T09:56:55.208Z,18.20
2022-10-28T09:59:43.230Z,18.20
2022-10-28T10:02:32.184Z,18.20
2022-10-28T10:05:21.380Z,18.20
2022-10-28T10:08:12.009Z,18.30
2022-10-28T10:11:02.766Z,18.30
2022-10-28T10:13:51.065Z,18.50
2022-10-28T10:16:40.673Z,18.50
2022-10-28T10:19:28.401Z,18.70
2022-10-28T10:22:29.285Z,18.80
2022-10-28T10:25:25.119Z,18.90
2022-10-28T10:28:16.510Z,18.90
2022-10-28T10:31:06.970Z,18.90
2022-10-28T10:33:55.577Z,19.00
2022-10-28T10:36:49.639Z,19.00
2022-10-28T10:39:38.837Z,19.00
2022-10-28T10:42:27.353Z,19.00
2022-10-28T10:45:25.645Z,19.10
2022-10-28T10:48:14.672Z,19.20
2022-10-28T10:51:06.459Z,19.30
2022-10-28T10:53:57.514Z,19.40
2022-10-28T10:56:46.960Z,19.60
2022-10-28T10:59:37.554Z,19.70
2022-10-28T11:02:27.249Z,19.70
2022-10-28T11:05:23.005Z,19.70
2022-10-28T11:08:20.486Z,19.70
2022-10-28T11:11:11.912Z,19.80
2022-10-28T11:14:05.379Z,19.90
2022-10-28T11:16:54.092Z,19.90
2022-10-28T11:19:42.248Z,19.90
2022-10-28T11:22:35.691Z,19.90
2022-10-28T11:25:35.208Z,19.80
2022-10-28T11:28:28.393Z,19.80
2022-10-28T11:31:27.876Z,19.80
2022-10-28T11:34:25.516Z,19.90
2022-10-28T11:37:15.690Z,20.00
2022-10-28T11:40:07.077Z,20.10
2022-10-28T11:43:00.658Z,20.10
2022-10-28T11:45:51.756Z,20.20
2022-10-28T11:48:45.440Z,20.30
2022-10-28T11:51:38.890Z,20.30
2022-10-28T11:54:30.086Z,20.40
2022-10-28T11:57:18.998Z,20.40
2022-10-28T12:00:22.756Z,20.50
2022-10-28T12:03:19.769Z,20.50
2022-10-28T12:06:13.182Z,20.50
2022-10-28T12:12:07.510Z,20.70
2022-10-28T12:15:01.107Z,20.70
2022-10-28T12:17:51.858Z,20.80
2022-10-28T12:20:43.394Z,20.90
2022-10-28T12:23:34.355Z,21.00
2022-10-28T12:26:24.154Z,21.00
2022-10-28T12:29:16.556Z,21.00
2022-10-28T12:32:06.704Z,21.10
2022-10-28T12:34:56.462Z,21.20
2022-10-28T12:37:48.592Z,21.20
2022-10-28T12:40:40.436Z,21.30
2022-10-28T12:43:30.606Z,21.30
2022-10-28T12:46:21.728Z,21.30
2022-10-28T12:49:11.862Z,21.30
2022-10-28T12:52:03.574Z,21.30
2022-10-28T12:54:55.259Z,21.40
2022-10-28T12:57:45.848Z,21.40
2022-10-28T13:00:36.975Z,21.40
2022-10-28T13:03:24.696Z,21.30
2022-10-28T13:06:20.477Z,21.30
2022-10-28T13:09:26.110Z,21.30
2022-10-28T13:12:31.760Z,21.30
2022-10-28T13:15:38.241Z,21.40
2022-10-28T13:18:52.154Z,21.40
2022-10-28T13:21:53.970Z,21.50
2022-10-28T13:24:49.718Z,21.50
2022-10-28T13:27:37.784Z,21.50
2022-10-28T13:30:26.253Z,21.60
2022-10-28T13:33:20.709Z,21.50
2022-10-28T13:36:12.204Z,21.60
2022-10-28T13:39:01.022Z,21.50
2022-10-28T13:41:49.123Z,21.40
2022-10-28T13:44:47.958Z,21.30
2022-10-28T13:47:36.801Z,21.40
2022-10-28T13:50:42.473Z,21.40
2022-10-28T13:53:39.332Z,21.50
2022-10-28T13:56:33.843Z,21.60
2022-10-28T13:59:26.317Z,21.60
2022-10-28T14:02:36.354Z,21.60
2022-10-28T14:05:26.581Z,21.60
2022-10-28T14:08:20.056Z,21.70
2022-10-28T14:11:09.007Z,21.60
2022-10-28T14:14:01.368Z,21.60
2022-10-28T14:16:49.209Z,21.60
2022-10-28T14:19:36.975Z,21.60
2022-10-28T14:22:29.063Z,21.50
2022-10-28T14:25:35.659Z,21.50
2022-10-28T14:28:42.175Z,21.40
2022-10-28T14:31:42.415Z,21.40
2022-10-28T14:34:37.613Z,21.30
2022-10-28T14:37:58.507Z,21.20
2022-10-28T14:40:50.333Z,21.20
2022-10-28T14:43:45.598Z,21.10
2022-10-28T14:46:44.572Z,21.00
2022-10-28T14:49:35.416Z,21.00
2022-10-28T14:52:23.166Z,20.90
2022-10-28T14:55:20.381Z,20.80
2022-10-28T14:58:20.928Z,20.80
2022-10-28T15:01:25.272Z,20.70
2022-10-28T15:04:13.740Z,20.60
2022-10-28T15:07:03.534Z,20.60
2022-10-28T15:09:53.579Z,20.50
2022-10-28T15:12:41.598Z,20.50
2022-10-28T15:15:30.610Z,20.40
2022-10-28T15:18:21.563Z,20.40
2022-10-28T15:21:10.031Z,20.30
2022-10-28T15:24:04.763Z,20.30
2022-10-28T15:26:54.092Z,20.20
2022-10-28T15:29:42.715Z,20.20
2022-10-28T15:32:31.800Z,20.10
2022-10-28T15:35:38.054Z,20.10
2022-10-28T15:38:27.401Z,20.00
2022-10-28T15:41:41.398Z,20.00
2022-10-28T15:44:33.272Z,19.90
2022-10-28T15:47:31.785Z,19.80
2022-10-28T15:50:25.961Z,19.70
2022-10-28T15:53:31.722Z,19.70
2022-10-28T15:56:20.831Z,19.60
2022-10-28T15:59:16.699Z,19.60
2022-10-28T16:02:04.519Z,19.60
2022-10-28T16:04:52.318Z,19.60
2022-10-28T16:07:45.001Z,19.50
2022-10-28T16:10:35.070Z,19.40
2022-10-28T16:13:28.145Z,19.40
2022-10-28T16:16:23.538Z,19.40
2022-10-28T16:19:18.685Z,19.40
2022-10-28T16:22:06.738Z,19.30
2022-10-28T16:24:54.951Z,19.30
2022-10-28T16:27:43.082Z,19.30
2022-10-28T16:30:30.817Z,19.30
2022-10-28T16:33:19.973Z,19.20
2022-10-28T16:36:08.140Z,19.20
2022-10-28T16:38:55.994Z,19.20
2022-10-28T16:41:43.692Z,19.10
2022-10-28T16:44:31.400Z,19.10
2022-10-28T16:47:20.428Z,19.10
2022-10-28T16:50:09.996Z,19.10
2022-10-28T16:52:57.717Z,19.10
2022-10-28T16:55:45.463Z,19.00
2022-10-28T16:58:34.416Z,19.00
2022-10-28T17:01:22.388Z,19.00
2022-10-28T17:04:10.246Z,18.90
2022-10-28T17:06:59.317Z,18.90
2022-10-28T17:09:47.111Z,18.80
2022-10-28T17:12:34.826Z,18.80
2022-10-28T17:15:22.656Z,18.80
2022-10-28T17:18:11.887Z,18.70
2022-10-28T17:21:00.567Z,18.70
2022-10-28T17:23:49.644Z,18.70
2022-10-28T17:26:37.358Z,18.70
2022-10-28T17:29:25.185Z,18.70
2022-10-28T17:32:12.911Z,18.70
2022-10-28T17:35:00.685Z,18.70
2022-10-28T17:37:48.442Z,18.60
2022-10-28T17:40:37.719Z,18.60
2022-10-28T17:43:25.489Z,18.60
2022-10-28T17:46:13.349Z,18.60
2022-10-28T17:49:01.060Z,18.60
2022-10-28T17:51:48.808Z,18.50
2022-10-28T17:54:36.494Z,18.50
2022-10-28T17:57:25.540Z,18.50
2022-10-28T18:00:13.839Z,18.40
2022-10-28T18:03:01.704Z,18.50
2022-10-28T18:05:49.632Z,18.40
2022-10-28T18:08:38.242Z,18.40
2022-10-28T18:11:27.286Z,18.40
2022-10-28T18:14:16.625Z,18.30
2022-10-28T18:17:04.303Z,18.30
2022-10-28T18:19:52.036Z,18.30
2022-10-28T18:22:40.038Z,18.30
2022-10-28T18:25:27.793Z,18.30
2022-10-28T18:28:17.509Z,18.30
2022-10-28T18:31:07.526Z,18.20
2022-10-28T18:33:55.612Z,18.20
2022-10-28T18:36:43.527Z,18.20
2022-10-28T18:39:31.532Z,18.20
2022-10-28T18:42:21.916Z,18.20
2022-10-28T18:45:10.261Z,18.30
2022-10-28T18:47:59.320Z,18.30
2022-10-28T18:50:55.205Z,18.30
2022-10-28T18:53:46.105Z,18.30
2022-10-28T18:56:34.183Z,18.30
2022-10-28T18:59:22.048Z,18.30
2022-10-28T19:02:10.023Z,18.30
2022-10-28T19:04:59.199Z,18.20
2022-10-28T19:07:47.071Z,18.20
2022-10-28T19:10:35.050Z,18.20
2022-10-28T19:13:22.838Z,18.20
2022-10-28T19:19:04.516Z,18.20
2022-10-28T19:21:55.687Z,18.10
2022-10-28T19:24:43.694Z,18.10
2022-10-28T19:27:31.473Z,18.10
2022-10-28T19:30:19.193Z,18.10
2022-10-28T19:33:06.926Z,18.10
2022-10-28T19:35:54.641Z,18.00
2022-10-28T19:38:44.016Z,18.00
2022-10-28T19:41:31.792Z,18.00
2022-10-28T19:44:19.618Z,18.00
2022-10-28T19:47:07.674Z,18.00
2022-10-28T19:49:55.524Z,18.00
2022-10-28T19:52:43.499Z,18.00
2022-10-28T19:55:32.549Z,18.00
2022-10-28T19:58:20.297Z,18.00
2022-10-28T20:01:08.999Z,17.90
2022-10-28T20:03:56.984Z,18.00
2022-10-28T20:06:44.741Z,17.90
2022-10-28T20:09:32.458Z,17.90
2022-10-28T20:12:21.516Z,17.90
2022-10-28T20:15:09.398Z,17.90
2022-10-28T20:17:57.161Z,17.90
2022-10-28T20:20:44.940Z,17.90
2022-10-28T20:23:33.217Z,17.80
2022-10-28T20:26:21.736Z,17.80
2022-10-28T20:29:11.085Z,17.80
2022-10-28T20:31:58.813Z,17.80
2022-10-28T20:34:48.954Z,17.80
2022-10-28T20:37:36.676Z,17.70
2022-10-28T20:40:24.363Z,17.70
2022-10-28T20:43:12.114Z,17.70
2022-10-28T20:46:02.435Z,17.70
2022-10-28T20:48:50.198Z,17.70
2022-10-28T20:51:37.919Z,17.70
2022-10-28T20:54:25.594Z,17.60
2022-10-28T20:57:13.321Z,17.60
2022-10-28T21:00:01.103Z,17.50
2022-10-28T21:02:50.334Z,17.50
2022-10-28T21:05:38.421Z,17.50
2022-10-28T21:08:26.136Z,17.40
2022-10-28T21:11:14.459Z,17.50
2022-10-28T21:14:02.622Z,17.40
2022-10-28T21:16:50.919Z,17.40
2022-10-28T21:19:40.086Z,17.30
2022-10-28T21:22:27.862Z,17.30
2022-10-28T21:25:15.714Z,17.30
2022-10-28T21:28:03.486Z,17.20
2022-10-28T21:30:51.194Z,17.20
2022-10-28T21:33:39.206Z,17.20
2022-10-28T21:36:28.379Z,17.20
2022-10-28T21:39:16.094Z,17.20
2022-10-28T21:42:03.855Z,17.10
2022-10-28T21:44:51.577Z,17.10
2022-10-28T21:47:39.321Z,17.10
2022-10-28T21:50:27.015Z,17.10
2022-10-28T21:53:16.152Z,17.10
2022-10-28T21:56:04.461Z,17.00
2022-10-28T21:58:52.189Z,17.00
2022-10-28T22:01:40.097Z,16.90
2022-10-28T22:04:27.965Z,16.90
2022-10-28T22:07:15.749Z,16.90
2022-10-28T22:10:05.137Z,16.90
2022-10-28T22:12:52.826Z,16.90
2022-10-28T22:15:40.607Z,16.90
2022-10-28T22:18:28.542Z,16.90
2022-10-28T22:21:17.625Z,16.90
2022-10-28T22:24:05.568Z,16.90
2022-10-28T22:26:54.636Z,16.90
2022-10-28T22:29:42.329Z,16.80
2022-10-28T22:32:30.035Z,16.80
2022-10-28T22:35:17.833Z,16.80
2022-10-28T22:38:05.656Z,16.80
2022-10-28T22:41:01.874Z,16.80
2022-10-28T22:43:51.976Z,16.80
2022-10-28T22:46:40.747Z,16.80
2022-10-28T22:49:28.465Z,16.80
2022-10-28T22:52:16.201Z,16.80
2022-10-28T22:55:03.998Z,16.80
2022-10-28T22:57:54.180Z,16.80
2022-10-28T23:00:43.530Z,16.70
2022-10-28T23:03:35.159Z,16.70
2022-10-28T23:06:23.886Z,16.70
2022-10-28T23:09:11.632Z,16.70
2022-10-28T23:11:59.386Z,16.60
2022-10-28T23:14:47.105Z,16.60
2022-10-28T23:17:36.158Z,16.50
2022-10-28T23:20:25.201Z,16.40
2022-10-28T23:23:12.904Z,16.50
2022-10-28T23:26:00.617Z,16.50
2022-10-28T23:28:50.616Z,16.50
2022-10-28T23:31:38.326Z,16.40
2022-10-28T23:34:28.214Z,16.40
2022-10-28T23:37:16.586Z,16.40
2022-10-28T23:40:04.739Z,16.40
2022-10-28T23:42:52.838Z,16.30
2022-10-28T23:45:40.716Z,16.30
2022-10-28T23:48:29.352Z,16.30
2022-10-28T23:51:19.369Z,16.30
2022-10-28T23:54:07.122Z,16.10
2022-10-28T23:56:55.084Z,16.10
2022-10-28T23:59:42.755Z,16.10
